Time,TemperatureF,DewpointF,PressureIn,WindDirection,WindDirectionDegrees,WindSpeedMPH,WindSpeedGustMPH,Humidity,HourlyPrecipIn,Conditions,Clouds,dailyrainin,SolarRadiationWatts/m^2,SoftwareType,DateUTC
2013-03-05 00:21:00,52.0,41.0,-100.00,WNW,292,8.0,16.0,66,0.00,,,0.00,0.000000,,2013-03-05 08:21:00,
2013-03-05 00:31:00,52.0,41.0,-100.00,WNW,292,8.0,16.0,66,0.00,,,0.00,0.000000,,2013-03-05 08:31:00,
2013-03-05 00:41:00,52.0,41.0,-100.00,WNW,292,8.0,16.0,66,0.00,,,0.00,0.000000,,2013-03-05 08:41:00,
2013-03-05 00:50:00,54.0,37.0,-100.00,NW,308,3.0,9.0,53,0.00,,,0.00,0.000000,,2013-03-05 08:50:00,
2013-03-05 01:11:00,54.0,37.0,-100.00,NW,308,3.0,9.0,53,0.00,,,0.00,0.000000,,2013-03-05 09:11:00,
2013-03-05 01:21:00,54.0,37.0,-100.00,NW,308,3.0,9.0,53,0.00,,,0.00,0.000000,,2013-03-05 09:21:00,
2013-03-05 01:31:00,54.0,37.0,-100.00,NW,308,3.0,9.0,53,0.00,,,0.00,0.000000,,2013-03-05 09:31:00,
2013-03-05 01:42:00,54.0,37.0,-100.00,NW,308,3.0,9.0,53,0.00,,,0.00,0.000000,,2013-03-05 09:42:00,
2013-03-05 01:50:00,54.0,36.0,-100.00,WNW,299,5.0,8.0,51,0.00,,,0.00,0.000000,,2013-03-05 09:50:00,
2013-03-05 02:11:00,54.0,36.0,-100.00,WNW,299,5.0,8.0,51,0.00,,,0.00,0.000000,,2013-03-05 10:11:00,
2013-03-05 02:21:00,54.0,36.0,-100.00,WNW,299,5.0,8.0,51,0.00,,,0.00,0.000000,,2013-03-05 10:21:00,
2013-03-05 02:32:00,54.0,36.0,-100.00,WNW,299,5.0,8.0,51,0.00,,,0.00,0.000000,,2013-03-05 10:32:00,
2013-03-05 02:41:00,54.0,36.0,-100.00,WNW,299,5.0,8.0,51,0.00,,,0.00,0.000000,,2013-03-05 10:41:00,
2013-03-05 02:50:00,56.0,31.0,-100.00,South,190,1.0,5.0,39,0.00,,,0.00,0.000000,,2013-03-05 10:50:00,
2013-03-05 03:11:00,56.0,31.0,-100.00,South,190,1.0,5.0,39,0.00,,,0.00,0.000000,,2013-03-05 11:11:00,
2013-03-05 03:22:00,56.0,31.0,-100.00,South,190,1.0,5.0,39,0.00,,,0.00,0.000000,,2013-03-05 11:22:00,
2013-03-05 03:32:00,56.0,31.0,-100.00,South,190,1.0,5.0,39,0.00,,,0.00,0.000000,,2013-03-05 11:32:00,
2013-03-05 03:41:00,56.0,31.0,-100.00,South,190,1.0,5.0,39,0.00,,,0.00,0.000000,,2013-03-05 11:41:00,
2013-03-05 03:50:00,55.0,35.0,-100.00,WNW,284,5.0,8.0,46,0.00,,,0.00,0.000000,,2013-03-05 11:50:00,
2013-03-05 04:22:00,55.0,35.0,-100.00,WNW,284,5.0,8.0,46,0.00,,,0.00,0.000000,,2013-03-05 12:22:00,
2013-03-05 04:32:00,55.0,35.0,-100.00,WNW,284,5.0,8.0,46,0.00,,,0.00,0.000000,,2013-03-05 12:32:00,
2013-03-05 04:42:00,55.0,35.0,-100.00,WNW,284,5.0,8.0,46,0.00,,,0.00,0.000000,,2013-03-05 12:42:00,
2013-03-05 04:50:00,52.0,33.0,-100.00,WNW,291,6.0,8.0,48,0.00,,,0.00,0.000000,,2013-03-05 12:50:00,
2013-03-05 05:21:00,52.0,33.0,-100.00,WNW,291,6.0,8.0,48,0.00,,,0.00,0.000000,,2013-03-05 13:21:00,
2013-03-05 05:32:00,52.0,33.0,-100.00,WNW,291,6.0,8.0,48,0.00,,,0.00,0.000000,,2013-03-05 13:32:00,
2013-03-05 05:42:00,52.0,33.0,-100.00,WNW,291,6.0,8.0,48,0.00,,,0.00,0.000000,,2013-03-05 13:42:00,
2013-03-05 05:50:00,54.0,33.0,-100.00,WNW,295,5.0,9.0,45,0.00,,,0.00,0.000000,,2013-03-05 13:50:00,
2013-03-05 06:11:00,54.0,33.0,-100.00,WNW,295,5.0,9.0,45,0.00,,,0.00,0.000000,,2013-03-05 14:11:00,
2013-03-05 06:21:00,54.0,33.0,-100.00,WNW,295,5.0,9.0,45,0.00,,,0.00,0.000000,,2013-03-05 14:21:00,
2013-03-05 06:31:00,54.0,33.0,-100.00,WNW,295,5.0,9.0,45,0.00,,,0.00,0.000000,,2013-03-05 14:31:00,
2013-03-05 06:41:00,54.0,33.0,-100.00,WNW,295,5.0,9.0,45,0.00,,,0.00,0.000000,,2013-03-05 14:41:00,
2013-03-05 06:50:00,53.0,32.0,-100.00,WNW,291,5.0,7.0,44,0.00,,,0.00,10.000000,,2013-03-05 14:50:00,
2013-03-05 07:11:00,53.0,32.0,-100.00,WNW,291,5.0,7.0,44,0.00,,,0.00,10.000000,,2013-03-05 15:11:00,
2013-03-05 07:21:00,53.0,32.0,-100.00,WNW,291,5.0,7.0,44,0.00,,,0.00,10.000000,,2013-03-05 15:21:00,
2013-03-05 07:32:00,53.0,32.0,-100.00,WNW,291,5.0,7.0,44,0.00,,,0.00,10.000000,,2013-03-05 15:32:00,
2013-03-05 07:42:00,53.0,32.0,-100.00,WNW,291,5.0,7.0,44,0.00,,,0.00,10.000000,,2013-03-05 15:42:00,
2013-03-05 07:50:00,61.0,35.0,-100.00,WNW,290,3.0,6.0,37,0.00,,,0.00,208.000000,,2013-03-05 15:50:00,
2013-03-05 08:21:00,61.0,35.0,-100.00,WNW,290,3.0,6.0,37,0.00,,,0.00,208.000000,,2013-03-05 16:21:00,
2013-03-05 08:41:00,61.0,35.0,-100.00,WNW,290,3.0,6.0,37,0.00,,,0.00,208.000000,,2013-03-05 16:41:00,
2013-03-05 08:50:00,63.0,33.0,-100.00,WNW,288,4.0,7.0,33,0.00,,,0.00,517.000000,,2013-03-05 16:50:00,
2013-03-05 09:21:00,63.0,33.0,-100.00,WNW,288,4.0,7.0,33,0.00,,,0.00,517.000000,,2013-03-05 17:21:00,
2013-03-05 09:32:00,63.0,33.0,-100.00,WNW,288,4.0,7.0,33,0.00,,,0.00,517.000000,,2013-03-05 17:32:00,
2013-03-05 09:41:00,63.0,33.0,-100.00,WNW,288,4.0,7.0,33,0.00,,,0.00,517.000000,,2013-03-05 17:41:00,
2013-03-05 09:50:00,67.0,32.0,-100.00,SE,134,5.0,10.0,27,0.00,,,0.00,743.000000,,2013-03-05 17:50:00,
2013-03-05 10:11:00,67.0,32.0,-100.00,SE,134,5.0,10.0,27,0.00,,,0.00,743.000000,,2013-03-05 18:11:00,
2013-03-05 10:21:00,67.0,32.0,-100.00,SE,134,5.0,10.0,27,0.00,,,0.00,743.000000,,2013-03-05 18:21:00,
2013-03-05 10:32:00,67.0,32.0,-100.00,SE,134,5.0,10.0,27,0.00,,,0.00,743.000000,,2013-03-05 18:32:00,
2013-03-05 10:41:00,67.0,32.0,-100.00,SE,134,5.0,10.0,27,0.00,,,0.00,743.000000,,2013-03-05 18:41:00,
2013-03-05 10:50:00,69.0,32.0,-100.00,SE,126,6.0,13.0,25,0.00,,,0.00,929.000000,,2013-03-05 18:50:00,
2013-03-05 11:11:00,69.0,32.0,-100.00,SE,126,6.0,13.0,25,0.00,,,0.00,929.000000,,2013-03-05 19:11:00,
2013-03-05 11:21:00,69.0,32.0,-100.00,SE,126,6.0,13.0,25,0.00,,,0.00,929.000000,,2013-03-05 19:21:00,
2013-03-05 11:31:00,69.0,32.0,-100.00,SE,126,6.0,13.0,25,0.00,,,0.00,929.000000,,2013-03-05 19:31:00,
2013-03-05 11:41:00,69.0,32.0,-100.00,SE,126,6.0,13.0,25,0.00,,,0.00,929.000000,,2013-03-05 19:41:00,
2013-03-05 11:50:00,71.0,33.0,-100.00,SE,127,9.0,16.0,25,0.00,,,0.00,1003.000000,,2013-03-05 19:50:00,
2013-03-05 12:21:00,71.0,33.0,-100.00,SE,127,9.0,16.0,25,0.00,,,0.00,1003.000000,,2013-03-05 20:21:00,
2013-03-05 12:32:00,71.0,33.0,-100.00,SE,127,9.0,16.0,25,0.00,,,0.00,1003.000000,,2013-03-05 20:32:00,
2013-03-05 12:41:00,71.0,33.0,-100.00,SE,127,9.0,16.0,25,0.00,,,0.00,1003.000000,,2013-03-05 20:41:00,
2013-03-05 12:50:00,71.0,33.0,-100.00,SE,124,9.0,18.0,25,0.00,,,0.00,1007.000000,,2013-03-05 20:50:00,
2013-03-05 13:11:00,71.0,33.0,-100.00,SE,124,9.0,18.0,25,0.00,,,0.00,1007.000000,,2013-03-05 21:11:00,
2013-03-05 13:21:00,71.0,33.0,-100.00,SE,124,9.0,18.0,25,0.00,,,0.00,1007.000000,,2013-03-05 21:21:00,
2013-03-05 13:31:00,71.0,33.0,-100.00,SE,124,9.0,18.0,25,0.00,,,0.00,1007.000000,,2013-03-05 21:31:00,
2013-03-05 13:41:00,71.0,33.0,-100.00,SE,124,9.0,18.0,25,0.00,,,0.00,1007.000000,,2013-03-05 21:41:00,
2013-03-05 13:50:00,70.0,33.0,-100.00,SE,124,9.0,15.0,25,0.00,,,0.00,931.000000,,2013-03-05 21:50:00,
2013-03-05 14:21:00,70.0,33.0,-100.00,SE,124,9.0,15.0,25,0.00,,,0.00,931.000000,,2013-03-05 22:21:00,
2013-03-05 14:32:00,70.0,33.0,-100.00,SE,124,9.0,15.0,25,0.00,,,0.00,931.000000,,2013-03-05 22:32:00,
2013-03-05 14:41:00,70.0,33.0,-100.00,SE,124,9.0,15.0,25,0.00,,,0.00,931.000000,,2013-03-05 22:41:00,
2013-03-05 14:50:00,71.0,36.0,-100.00,WNW,284,12.0,22.0,28,0.00,,,0.00,786.000000,,2013-03-05 22:50:00,
2013-03-05 15:21:00,71.0,36.0,-100.00,WNW,284,12.0,22.0,28,0.00,,,0.00,786.000000,,2013-03-05 23:21:00,
2013-03-05 15:32:00,71.0,36.0,-100.00,WNW,284,12.0,22.0,28,0.00,,,0.00,786.000000,,2013-03-05 23:32:00,
2013-03-05 15:41:00,71.0,36.0,-100.00,WNW,284,12.0,22.0,28,0.00,,,0.00,786.000000,,2013-03-05 23:41:00,
2013-03-05 15:50:00,65.0,35.0,-100.00,WNW,282,20.0,31.0,33,0.00,,,0.00,577.000000,,2013-03-05 23:50:00,
2013-03-05 16:11:00,65.0,35.0,-100.00,WNW,282,20.0,31.0,33,0.00,,,0.00,577.000000,,2013-03-06 00:11:00,
2013-03-05 16:21:00,65.0,35.0,-100.00,WNW,282,20.0,31.0,33,0.00,,,0.00,577.000000,,2013-03-06 00:21:00,
2013-03-05 16:32:00,65.0,35.0,-100.00,WNW,282,20.0,31.0,33,0.00,,,0.00,577.000000,,2013-03-06 00:32:00,
2013-03-05 16:41:00,65.0,35.0,-100.00,WNW,282,20.0,31.0,33,0.00,,,0.00,577.000000,,2013-03-06 00:41:00,
2013-03-05 16:50:00,64.0,40.0,-100.00,West,273,12.0,33.0,42,0.00,,,-99.99,305.000000,,2013-03-06 00:50:00,
2013-03-05 17:21:00,64.0,40.0,-100.00,West,273,12.0,33.0,42,0.00,,,-99.99,305.000000,,2013-03-06 01:21:00,
2013-03-05 17:31:00,64.0,40.0,-100.00,West,273,12.0,33.0,42,0.00,,,-99.99,305.000000,,2013-03-06 01:31:00,
2013-03-05 17:41:00,64.0,40.0,-100.00,West,273,12.0,33.0,42,0.00,,,-99.99,305.000000,,2013-03-06 01:41:00,
2013-03-05 17:50:00,60.0,41.0,-100.00,West,273,12.0,25.0,49,0.00,,,0.00,28.000000,,2013-03-06 01:50:00,
2013-03-05 18:11:00,60.0,41.0,-100.00,West,273,12.0,25.0,49,0.00,,,0.00,28.000000,,2013-03-06 02:11:00,
2013-03-05 18:21:00,60.0,41.0,-100.00,West,273,12.0,25.0,49,0.00,,,0.00,28.000000,,2013-03-06 02:21:00,
2013-03-05 18:31:00,60.0,41.0,-100.00,West,273,12.0,25.0,49,0.00,,,0.00,28.000000,,2013-03-06 02:31:00,
2013-03-05 18:41:00,60.0,41.0,-100.00,West,273,12.0,25.0,49,0.00,,,0.00,28.000000,,2013-03-06 02:41:00,
2013-03-05 18:50:00,58.0,41.0,-100.00,West,263,15.0,29.0,54,0.00,,,0.00,0.000000,,2013-03-06 02:50:00,
2013-03-05 19:11:00,58.0,41.0,-100.00,West,263,15.0,29.0,54,0.00,,,0.00,0.000000,,2013-03-06 03:11:00,
2013-03-05 19:21:00,58.0,41.0,-100.00,West,263,15.0,29.0,54,0.00,,,0.00,0.000000,,2013-03-06 03:21:00,
2013-03-05 19:31:00,58.0,41.0,-100.00,West,263,15.0,29.0,54,0.00,,,0.00,0.000000,,2013-03-06 03:31:00,
2013-03-05 19:41:00,58.0,41.0,-100.00,West,263,15.0,29.0,54,0.00,,,0.00,0.000000,,2013-03-06 03:41:00,
2013-03-05 19:50:00,55.0,41.0,-100.00,WSW,258,13.0,24.0,58,0.00,,,0.00,0.000000,,2013-03-06 03:50:00,
2013-03-05 20:21:00,55.0,41.0,-100.00,WSW,258,13.0,24.0,58,0.00,,,0.00,0.000000,,2013-03-06 04:21:00,
2013-03-05 20:32:00,55.0,41.0,-100.00,WSW,258,13.0,24.0,58,0.00,,,0.00,0.000000,,2013-03-06 04:32:00,
2013-03-05 20:41:00,55.0,41.0,-100.00,WSW,258,13.0,24.0,58,0.00,,,0.00,0.000000,,2013-03-06 04:41:00,
2013-03-05 20:50:00,53.0,42.0,-100.00,WSW,253,12.0,23.0,67,0.00,,,0.00,0.000000,,2013-03-06 04:50:00,
2013-03-05 21:11:00,53.0,42.0,-100.00,WSW,253,12.0,23.0,67,0.00,,,0.00,0.000000,,2013-03-06 05:11:00,
2013-03-05 21:22:00,53.0,42.0,-100.00,WSW,253,12.0,23.0,67,0.00,,,0.00,0.000000,,2013-03-06 05:22:00,
2013-03-05 21:32:00,53.0,42.0,-100.00,WSW,253,12.0,23.0,67,0.00,,,0.00,0.000000,,2013-03-06 05:32:00,
2013-03-05 21:42:00,53.0,42.0,-100.00,WSW,253,12.0,23.0,67,0.00,,,0.00,0.000000,,2013-03-06 05:42:00,
2013-03-05 21:50:00,48.0,42.0,-100.00,West,260,24.0,33.0,81,0.00,,,0.00,0.000000,,2013-03-06 05:50:00,
2013-03-05 22:22:00,48.0,42.0,-100.00,West,260,24.0,33.0,81,0.00,,,0.00,0.000000,,2013-03-06 06:22:00,
2013-03-05 22:31:00,48.0,42.0,-100.00,West,260,24.0,33.0,81,0.00,,,0.00,0.000000,,2013-03-06 06:31:00,
2013-03-05 22:41:00,48.0,42.0,-100.00,West,260,24.0,33.0,81,0.00,,,0.00,0.000000,,2013-03-06 06:41:00,
2013-03-05 22:50:00,48.0,45.0,-100.00,West,266,24.0,41.0,91,0.00,,,0.00,0.000000,,2013-03-06 06:50:00,
2013-03-05 23:22:00,48.0,45.0,-100.00,West,266,24.0,41.0,91,0.00,,,0.00,0.000000,,2013-03-06 07:22:00,
2013-03-05 23:31:00,48.0,45.0,-100.00,West,266,24.0,41.0,91,0.00,,,0.00,0.000000,,2013-03-06 07:31:00,
2013-03-05 23:42:00,48.0,45.0,-100.00,West,266,24.0,41.0,91,0.00,,,0.00,0.000000,,2013-03-06 07:42:00,
2013-03-05 23:50:00,48.0,44.0,-100.00,West,264,26.0,41.0,87,0.00,,,0.00,0.000000,,2013-03-06 07:50:00,